sensor_id;sensor_type;location;lat;lon;timestamp;temperature;humidity
23729;DHT22;12045;60.214;24.724;2022-07-04T00:01:08;17.40;99.90
23729;DHT22;12045;60.214;24.724;2022-07-04T00:03:35;17.40;99.90
23729;DHT22;12045;60.214;24.724;2022-07-04T00:06:03;17.30;99.90
23729;DHT22;12045;60.214;24.724;2022-07-04T00:08:31;17.30;99.90
23729;DHT22;12045;60.214;24.724;2022-07-04T00:10:58;17.30;99.90
23729;DHT22;12045;60.214;24.724;2022-07-04T00:13:26;17.20;99.90
23729;DHT22;12045;60.214;24.724;2022-07-04T00:15:54;17.20;99.90
23729;DHT22;12045;60.214;24.724;2022-07-04T00:18:22;17.20;99.90
23729;DHT22;12045;60.214;24.724;2022-07-04T00:20:49;17.10;99.90
23729;DHT22;12045;60.214;24.724;2022-07-04T00:23:17;17.10;99.90
23729;DHT22;12045;60.214;24.724;2022-07-04T00:25:44;17.10;99.90
23729;DHT22;12045;60.214;24.724;2022-07-04T00:28:12;17.10;99.90
23729;DHT22;12045;60.214;24.724;2022-07-04T00:30:40;17.10;99.90
23729;DHT22;12045;60.214;24.724;2022-07-04T00:33:11;17.10;99.90
23729;DHT22;12045;60.214;24.724;2022-07-04T00:35:39;17.00;99.90
23729;DHT22;12045;60.214;24.724;2022-07-04T00:38:06;17.00;99.90
23729;DHT22;12045;60.214;24.724;2022-07-04T00:40:37;17.00;99.90
23729;DHT22;12045;60.214;24.724;2022-07-04T00:43:05;17.00;99.90
23729;DHT22;12045;60.214;24.724;2022-07-04T00:45:32;17.00;99.90
23729;DHT22;12045;60.214;24.724;2022-07-04T00:48:00;17.00;99.90
23729;DHT22;12045;60.214;24.724;2022-07-04T00:50:28;17.10;99.90
23729;DHT22;12045;60.214;24.724;2022-07-04T00:52:56;17.00;99.90
23729;DHT22;12045;60.214;24.724;2022-07-04T00:55:24;17.10;99.90
23729;DHT22;12045;60.214;24.724;2022-07-04T00:57:52;17.00;99.90
23729;DHT22;12045;60.214;24.724;2022-07-04T01:00:20;17.00;99.90
23729;DHT22;12045;60.214;24.724;2022-07-04T01:02:48;17.00;99.90
23729;DHT22;12045;60.214;24.724;2022-07-04T01:05:15;16.90;99.90
23729;DHT22;12045;60.214;24.724;2022-07-04T01:07:43;16.90;99.90
23729;DHT22;12045;60.214;24.724;2022-07-04T01:10:11;16.90;99.90
23729;DHT22;12045;60.214;24.724;2022-07-04T01:12:39;16.90;99.90
23729;DHT22;12045;60.214;24.724;2022-07-04T01:15:17;17.00;99.90
23729;DHT22;12045;60.214;24.724;2022-07-04T01:17:45;17.10;99.90
23729;DHT22;12045;60.214;24.724;2022-07-04T01:20:13;17.20;99.90
23729;DHT22;12045;60.214;24.724;2022-07-04T01:22:41;17.40;99.90
23729;DHT22;12045;60.214;24.724;2022-07-04T01:25:09;17.50;99.90
23729;DHT22;12045;60.214;24.724;2022-07-04T01:27:37;17.60;99.90
23729;DHT22;12045;60.214;24.724;2022-07-04T01:30:04;17.70;99.90
23729;DHT22;12045;60.214;24.724;2022-07-04T01:32:32;17.70;99.90
23729;DHT22;12045;60.214;24.724;2022-07-04T01:34:59;17.70;99.90
23729;DHT22;12045;60.214;24.724;2022-07-04T01:37:27;17.70;99.90
23729;DHT22;12045;60.214;24.724;2022-07-04T01:39:54;17.80;99.90
23729;DHT22;12045;60.214;24.724;2022-07-04T01:42:22;17.70;99.90
23729;DHT22;12045;60.214;24.724;2022-07-04T01:44:49;17.40;99.90
23729;DHT22;12045;60.214;24.724;2022-07-04T01:47:17;17.20;99.90
23729;DHT22;12045;60.214;24.724;2022-07-04T01:50:05;18.20;99.90
23729;DHT22;12045;60.214;24.724;2022-07-04T01:52:34;17.00;99.90
23729;DHT22;12045;60.214;24.724;2022-07-04T01:55:01;17.00;99.90
23729;DHT22;12045;60.214;24.724;2022-07-04T01:57:29;17.00;99.90
23729;DHT22;12045;60.214;24.724;2022-07-04T01:59:56;17.10;99.90
23729;DHT22;12045;60.214;24.724;2022-07-04T02:02:42;17.20;99.90
23729;DHT22;12045;60.214;24.724;2022-07-04T02:05:10;17.30;99.90
23729;DHT22;12045;60.214;24.724;2022-07-04T02:07:41;17.50;99.90
23729;DHT22;12045;60.214;24.724;2022-07-04T02:10:08;17.50;99.90
23729;DHT22;12045;60.214;24.724;2022-07-04T02:12:36;17.40;99.90
23729;DHT22;12045;60.214;24.724;2022-07-04T02:15:23;17.30;99.90
23729;DHT22;12045;60.214;24.724;2022-07-04T02:17:50;17.40;99.90
23729;DHT22;12045;60.214;24.724;2022-07-04T02:20:18;17.40;99.90
23729;DHT22;12045;60.214;24.724;2022-07-04T02:22:45;17.50;99.90
23729;DHT22;12045;60.214;24.724;2022-07-04T02:25:13;17.50;99.90
23729;DHT22;12045;60.214;24.724;2022-07-04T02:27:41;17.40;99.90
23729;DHT22;12045;60.214;24.724;2022-07-04T02:30:09;17.50;99.90
23729;DHT22;12045;60.214;24.724;2022-07-04T02:32:36;17.50;99.90
23729;DHT22;12045;60.214;24.724;2022-07-04T02:35:05;17.40;99.90
23729;DHT22;12045;60.214;24.724;2022-07-04T02:37:33;17.40;99.90
23729;DHT22;12045;60.214;24.724;2022-07-04T02:40:00;17.50;99.90
23729;DHT22;12045;60.214;24.724;2022-07-04T02:42:30;17.60;99.90
23729;DHT22;12045;60.214;24.724;2022-07-04T02:44:58;17.70;99.90
23729;DHT22;12045;60.214;24.724;2022-07-04T02:47:26;17.80;99.90
23729;DHT22;12045;60.214;24.724;2022-07-04T02:49:53;17.90;99.90
23729;DHT22;12045;60.214;24.724;2022-07-04T02:52:21;17.90;99.90
23729;DHT22;12045;60.214;24.724;2022-07-04T02:54:49;18.00;99.90
23729;DHT22;12045;60.214;24.724;2022-07-04T02:57:16;18.10;99.90
23729;DHT22;12045;60.214;24.724;2022-07-04T02:59:45;18.20;99.90
23729;DHT22;12045;60.214;24.724;2022-07-04T03:02:12;18.30;99.90
23729;DHT22;12045;60.214;24.724;2022-07-04T03:04:40;18.40;99.90
23729;DHT22;12045;60.214;24.724;2022-07-04T03:07:07;18.60;99.90
23729;DHT22;12045;60.214;24.724;2022-07-04T03:09:35;18.80;99.90
23729;DHT22;12045;60.214;24.724;2022-07-04T03:12:03;18.90;99.90
23729;DHT22;12045;60.214;24.724;2022-07-04T03:14:31;19.00;99.90
23729;DHT22;12045;60.214;24.724;2022-07-04T03:16:58;19.10;99.90
23729;DHT22;12045;60.214;24.724;2022-07-04T03:19:26;19.10;99.90
23729;DHT22;12045;60.214;24.724;2022-07-04T03:21:53;18.90;99.90
23729;DHT22;12045;60.214;24.724;2022-07-04T03:24:21;18.90;99.90
23729;DHT22;12045;60.214;24.724;2022-07-04T03:26:48;18.80;99.90
23729;DHT22;12045;60.214;24.724;2022-07-04T03:29:16;18.90;99.90
23729;DHT22;12045;60.214;24.724;2022-07-04T03:31:43;19.00;99.90
23729;DHT22;12045;60.214;24.724;2022-07-04T03:34:14;19.20;99.90
23729;DHT22;12045;60.214;24.724;2022-07-04T03:36:42;19.30;99.90
23729;DHT22;12045;60.214;24.724;2022-07-04T03:39:09;19.20;99.90
23729;DHT22;12045;60.214;24.724;2022-07-04T03:41:37;19.10;99.90
23729;DHT22;12045;60.214;24.724;2022-07-04T03:44:04;19.00;99.90
23729;DHT22;12045;60.214;24.724;2022-07-04T03:46:32;19.00;99.90
23729;DHT22;12045;60.214;24.724;2022-07-04T03:48:59;19.10;99.90
23729;DHT22;12045;60.214;24.724;2022-07-04T03:51:32;19.10;99.90
23729;DHT22;12045;60.214;24.724;2022-07-04T03:54:00;19.10;99.90
23729;DHT22;12045;60.214;24.724;2022-07-04T03:56:27;19.20;99.90
23729;DHT22;12045;60.214;24.724;2022-07-04T03:58:55;19.30;99.90
23729;DHT22;12045;60.214;24.724;2022-07-04T04:01:23;19.50;99.90
23729;DHT22;12045;60.214;24.724;2022-07-04T04:03:51;19.40;99.90
23729;DHT22;12045;60.214;24.724;2022-07-04T04:06:37;19.30;99.90
23729;DHT22;12045;60.214;24.724;2022-07-04T04:09:05;19.40;99.90
23729;DHT22;12045;60.214;24.724;2022-07-04T04:11:36;19.40;99.90
23729;DHT22;12045;60.214;24.724;2022-07-04T04:14:04;19.40;99.90
23729;DHT22;12045;60.214;24.724;2022-07-04T04:16:31;19.30;99.90
23729;DHT22;12045;60.214;24.724;2022-07-04T04:18:59;19.20;99.90
23729;DHT22;12045;60.214;24.724;2022-07-04T04:21:27;19.40;99.90
23729;DHT22;12045;60.214;24.724;2022-07-04T04:23:57;19.40;99.90
23729;DHT22;12045;60.214;24.724;2022-07-04T04:26:25;19.40;99.90
23729;DHT22;12045;60.214;24.724;2022-07-04T04:28:52;19.50;99.90
23729;DHT22;12045;60.214;24.724;2022-07-04T04:31:20;19.50;99.90
23729;DHT22;12045;60.214;24.724;2022-07-04T04:33:48;19.50;99.90
23729;DHT22;12045;60.214;24.724;2022-07-04T04:36:15;19.40;99.90
23729;DHT22;12045;60.214;24.724;2022-07-04T04:38:43;19.40;99.90
23729;DHT22;12045;60.214;24.724;2022-07-04T04:41:20;19.50;99.90
23729;DHT22;12045;60.214;24.724;2022-07-04T04:43:47;19.70;99.90
23729;DHT22;12045;60.214;24.724;2022-07-04T04:46:19;19.80;99.90
23729;DHT22;12045;60.214;24.724;2022-07-04T04:48:47;19.80;99.90
23729;DHT22;12045;60.214;24.724;2022-07-04T04:51:15;20.00;99.90
23729;DHT22;12045;60.214;24.724;2022-07-04T04:53:43;20.10;99.90
23729;DHT22;12045;60.214;24.724;2022-07-04T04:56:10;20.20;99.90
23729;DHT22;12045;60.214;24.724;2022-07-04T04:58:38;20.40;99.90
23729;DHT22;12045;60.214;24.724;2022-07-04T05:01:06;20.60;99.90
23729;DHT22;12045;60.214;24.724;2022-07-04T05:03:54;20.60;99.90
23729;DHT22;12045;60.214;24.724;2022-07-04T05:06:22;20.90;99.90
23729;DHT22;12045;60.214;24.724;2022-07-04T05:08:49;21.10;99.90
23729;DHT22;12045;60.214;24.724;2022-07-04T05:13:47;21.10;99.90
23729;DHT22;12045;60.214;24.724;2022-07-04T05:16:15;21.30;99.90
23729;DHT22;12045;60.214;24.724;2022-07-04T05:18:42;21.50;99.90
23729;DHT22;12045;60.214;24.724;2022-07-04T05:21:10;21.50;99.90
23729;DHT22;12045;60.214;24.724;2022-07-04T05:37:40;21.40;99.90
23729;DHT22;12045;60.214;24.724;2022-07-04T05:49:27;22.00;99.90
23729;DHT22;12045;60.214;24.724;2022-07-04T05:51:54;22.20;99.90
23729;DHT22;12045;60.214;24.724;2022-07-04T06:04:02;22.50;99.90
23729;DHT22;12045;60.214;24.724;2022-07-04T06:15:32;22.40;99.90
23729;DHT22;12045;60.214;24.724;2022-07-04T06:18:13;22.40;99.90
23729;DHT22;12045;60.214;24.724;2022-07-04T06:23:45;22.30;99.90
23729;DHT22;12045;60.214;24.724;2022-07-04T06:26:13;22.30;99.90
23729;DHT22;12045;60.214;24.724;2022-07-04T06:28:41;22.40;99.90
23729;DHT22;12045;60.214;24.724;2022-07-04T06:31:14;22.40;99.90
23729;DHT22;12045;60.214;24.724;2022-07-04T06:33:43;22.40;99.90
23729;DHT22;12045;60.214;24.724;2022-07-04T06:42:11;22.20;99.90
23729;DHT22;12045;60.214;24.724;2022-07-04T06:44:40;22.40;99.90
23729;DHT22;12045;60.214;24.724;2022-07-04T06:47:08;22.50;99.90
23729;DHT22;12045;60.214;24.724;2022-07-04T06:49:36;22.50;99.90
23729;DHT22;12045;60.214;24.724;2022-07-04T06:52:03;22.60;99.90
23729;DHT22;12045;60.214;24.724;2022-07-04T06:54:31;22.70;99.90
23729;DHT22;12045;60.214;24.724;2022-07-04T06:56:58;22.80;99.90
23729;DHT22;12045;60.214;24.724;2022-07-04T06:59:46;22.60;99.90
23729;DHT22;12045;60.214;24.724;2022-07-04T07:02:14;22.30;99.90
23729;DHT22;12045;60.214;24.724;2022-07-04T07:07:59;22.40;99.90
23729;DHT22;12045;60.214;24.724;2022-07-04T07:10:31;22.60;99.90
23729;DHT22;12045;60.214;24.724;2022-07-04T07:13:02;22.80;99.90
23729;DHT22;12045;60.214;24.724;2022-07-04T07:18:20;22.90;99.90
23729;DHT22;12045;60.214;24.724;2022-07-04T07:20:47;23.10;99.90
23729;DHT22;12045;60.214;24.724;2022-07-04T07:28:42;23.30;99.90
23729;DHT22;12045;60.214;24.724;2022-07-04T07:31:16;23.60;99.90
23729;DHT22;12045;60.214;24.724;2022-07-04T07:33:44;23.50;99.90
23729;DHT22;12045;60.214;24.724;2022-07-04T07:39:29;23.70;99.90
23729;DHT22;12045;60.214;24.724;2022-07-04T08:10:27;24.40;95.90
23729;DHT22;12045;60.214;24.724;2022-07-04T08:28:57;24.60;92.50
23729;DHT22;12045;60.214;24.724;2022-07-04T08:34:14;24.90;91.20
23729;DHT22;12045;60.214;24.724;2022-07-04T08:45:55;25.10;74.10
23729;DHT22;12045;60.214;24.724;2022-07-04T08:48:52;25.50;72.50
23729;DHT22;12045;60.214;24.724;2022-07-04T08:51:29;25.40;73.00
23729;DHT22;12045;60.214;24.724;2022-07-04T08:54:01;25.40;76.00
23729;DHT22;12045;60.214;24.724;2022-07-04T08:56:50;25.50;78.00
23729;DHT22;12045;60.214;24.724;2022-07-04T08:59:36;25.40;77.50
23729;DHT22;12045;60.214;24.724;2022-07-04T09:02:04;25.40;77.50
23729;DHT22;12045;60.214;24.724;2022-07-04T09:04:32;25.30;77.10
23729;DHT22;12045;60.214;24.724;2022-07-04T09:07:01;25.30;78.20
23729;DHT22;12045;60.214;24.724;2022-07-04T09:09:32;25.40;79.70
23729;DHT22;12045;60.214;24.724;2022-07-04T09:12:16;25.40;75.70
23729;DHT22;12045;60.214;24.724;2022-07-04T09:17:24;25.40;76.80
23729;DHT22;12045;60.214;24.724;2022-07-04T09:20:15;25.30;80.30
23729;DHT22;12045;60.214;24.724;2022-07-04T09:22:44;25.40;79.00
23729;DHT22;12045;60.214;24.724;2022-07-04T09:25:14;25.40;79.80
23729;DHT22;12045;60.214;24.724;2022-07-04T09:27:50;25.40;73.60
23729;DHT22;12045;60.214;24.724;2022-07-04T09:30:24;25.50;76.60
23729;DHT22;12045;60.214;24.724;2022-07-04T09:32:54;25.50;76.20
23729;DHT22;12045;60.214;24.724;2022-07-04T09:35:29;25.50;74.80
23729;DHT22;12045;60.214;24.724;2022-07-04T09:38:03;25.40;77.60
23729;DHT22;12045;60.214;24.724;2022-07-04T09:40:34;25.50;79.10
23729;DHT22;12045;60.214;24.724;2022-07-04T09:46:22;25.90;83.70
23729;DHT22;12045;60.214;24.724;2022-07-04T09:48:51;25.60;83.00
23729;DHT22;12045;60.214;24.724;2022-07-04T09:51:42;25.50;85.10
23729;DHT22;12045;60.214;24.724;2022-07-04T09:54:23;25.50;88.90
23729;DHT22;12045;60.214;24.724;2022-07-04T09:56:59;25.50;90.00
23729;DHT22;12045;60.214;24.724;2022-07-04T09:59:29;25.80;89.50
23729;DHT22;12045;60.214;24.724;2022-07-04T10:04:51;26.10;88.50
23729;DHT22;12045;60.214;24.724;2022-07-04T10:07:34;26.50;88.70
23729;DHT22;12045;60.214;24.724;2022-07-04T10:10:23;26.80;84.00
23729;DHT22;12045;60.214;24.724;2022-07-04T10:13:09;26.90;86.90
23729;DHT22;12045;60.214;24.724;2022-07-04T10:15:39;27.20;87.70
23729;DHT22;12045;60.214;24.724;2022-07-04T10:18:24;27.50;87.90
23729;DHT22;12045;60.214;24.724;2022-07-04T10:21:00;27.50;84.80
23729;DHT22;12045;60.214;24.724;2022-07-04T10:23:29;27.50;87.50
23729;DHT22;12045;60.214;24.724;2022-07-04T10:25:59;27.30;90.00
23729;DHT22;12045;60.214;24.724;2022-07-04T10:28:27;27.20;90.60
23729;DHT22;12045;60.214;24.724;2022-07-04T10:31:01;27.50;90.40
23729;DHT22;12045;60.214;24.724;2022-07-04T10:33:30;27.70;90.10
23729;DHT22;12045;60.214;24.724;2022-07-04T10:36:01;28.00;89.70
23729;DHT22;12045;60.214;24.724;2022-07-04T10:38:45;28.20;88.60
23729;DHT22;12045;60.214;24.724;2022-07-04T10:41:21;28.30;88.80
23729;DHT22;12045;60.214;24.724;2022-07-04T10:43:58;28.20;88.10
23729;DHT22;12045;60.214;24.724;2022-07-04T10:46:33;27.90;88.70
23729;DHT22;12045;60.214;24.724;2022-07-04T10:49:19;28.10;88.90
23729;DHT22;12045;60.214;24.724;2022-07-04T10:51:56;28.10;88.20
23729;DHT22;12045;60.214;24.724;2022-07-04T10:54:34;28.10;88.90
23729;DHT22;12045;60.214;24.724;2022-07-04T11:00:01;28.20;88.70
23729;DHT22;12045;60.214;24.724;2022-07-04T11:02:38;28.20;87.20
23729;DHT22;12045;60.214;24.724;2022-07-04T11:05:10;28.20;85.50
23729;DHT22;12045;60.214;24.724;2022-07-04T11:10:20;28.10;85.20
23729;DHT22;12045;60.214;24.724;2022-07-04T11:13:07;28.00;84.90
23729;DHT22;12045;60.214;24.724;2022-07-04T11:18:30;28.00;82.90
23729;DHT22;12045;60.214;24.724;2022-07-04T11:20:57;27.80;83.00
23729;DHT22;12045;60.214;24.724;2022-07-04T11:23:25;28.00;83.40
23729;DHT22;12045;60.214;24.724;2022-07-04T11:26:08;27.90;83.60
23729;DHT22;12045;60.214;24.724;2022-07-04T11:28:37;27.80;82.70
23729;DHT22;12045;60.214;24.724;2022-07-04T11:34:08;28.10;82.20
23729;DHT22;12045;60.214;24.724;2022-07-04T11:36:45;28.10;82.60
23729;DHT22;12045;60.214;24.724;2022-07-04T11:39:22;28.10;79.70
23729;DHT22;12045;60.214;24.724;2022-07-04T11:44:48;27.90;80.20
23729;DHT22;12045;60.214;24.724;2022-07-04T11:47:40;28.30;79.30
23729;DHT22;12045;60.214;24.724;2022-07-04T11:50:15;28.50;77.30
23729;DHT22;12045;60.214;24.724;2022-07-04T11:52:47;28.50;76.90
23729;DHT22;12045;60.214;24.724;2022-07-04T11:55:34;28.10;74.60
23729;DHT22;12045;60.214;24.724;2022-07-04T12:01:02;28.00;73.70
23729;DHT22;12045;60.214;24.724;2022-07-04T12:03:32;27.90;74.10
23729;DHT22;12045;60.214;24.724;2022-07-04T12:08:46;28.30;73.70
23729;DHT22;12045;60.214;24.724;2022-07-04T12:11:15;28.50;72.00
23729;DHT22;12045;60.214;24.724;2022-07-04T12:13:43;28.60;71.20
23729;DHT22;12045;60.214;24.724;2022-07-04T12:16:13;28.70;71.40
23729;DHT22;12045;60.214;24.724;2022-07-04T12:18:41;28.70;70.80
23729;DHT22;12045;60.214;24.724;2022-07-04T12:21:16;28.80;72.70
23729;DHT22;12045;60.214;24.724;2022-07-04T12:26:55;28.60;70.50
23729;DHT22;12045;60.214;24.724;2022-07-04T12:29:26;27.70;69.50
23729;DHT22;12045;60.214;24.724;2022-07-04T12:31:58;27.60;69.50
23729;DHT22;12045;60.214;24.724;2022-07-04T12:34:27;27.70;70.60
23729;DHT22;12045;60.214;24.724;2022-07-04T12:36:56;27.70;72.30
23729;DHT22;12045;60.214;24.724;2022-07-04T12:48:01;28.00;71.60
23729;DHT22;12045;60.214;24.724;2022-07-04T12:50:30;28.20;69.90
23729;DHT22;12045;60.214;24.724;2022-07-04T12:52:59;28.20;68.80
23729;DHT22;12045;60.214;24.724;2022-07-04T12:55:41;27.80;68.90
23729;DHT22;12045;60.214;24.724;2022-07-04T12:58:09;27.30;69.20
23729;DHT22;12045;60.214;24.724;2022-07-04T13:00:38;27.10;70.40
23729;DHT22;12045;60.214;24.724;2022-07-04T13:03:30;26.80;70.50
23729;DHT22;12045;60.214;24.724;2022-07-04T13:05:58;27.00;65.80
23729;DHT22;12045;60.214;24.724;2022-07-04T13:08:26;27.00;66.70
23729;DHT22;12045;60.214;24.724;2022-07-04T13:10:54;27.10;66.60
23729;DHT22;12045;60.214;24.724;2022-07-04T13:13:41;27.30;64.60
23729;DHT22;12045;60.214;24.724;2022-07-04T13:16:09;27.40;65.50
23729;DHT22;12045;60.214;24.724;2022-07-04T13:18:38;27.40;66.70
23729;DHT22;12045;60.214;24.724;2022-07-04T13:21:07;27.10;65.80
23729;DHT22;12045;60.214;24.724;2022-07-04T13:23:34;26.80;66.70
23729;DHT22;12045;60.214;24.724;2022-07-04T13:26:02;26.90;66.60
23729;DHT22;12045;60.214;24.724;2022-07-04T13:28:31;26.80;66.70
23729;DHT22;12045;60.214;24.724;2022-07-04T13:30:58;26.70;66.60
23729;DHT22;12045;60.214;24.724;2022-07-04T13:33:27;26.90;66.00
23729;DHT22;12045;60.214;24.724;2022-07-04T13:41:34;26.90;64.30
23729;DHT22;12045;60.214;24.724;2022-07-04T13:44:03;27.20;62.10
23729;DHT22;12045;60.214;24.724;2022-07-04T13:46:38;26.60;63.00
23729;DHT22;12045;60.214;24.724;2022-07-04T13:49:06;26.80;63.70
23729;DHT22;12045;60.214;24.724;2022-07-04T13:51:40;26.80;63.50
23729;DHT22;12045;60.214;24.724;2022-07-04T13:54:09;26.60;60.50
23729;DHT22;12045;60.214;24.724;2022-07-04T13:56:37;26.50;63.90
23729;DHT22;12045;60.214;24.724;2022-07-04T13:59:11;25.90;64.50
23729;DHT22;12045;60.214;24.724;2022-07-04T14:01:39;25.90;62.00
23729;DHT22;12045;60.214;24.724;2022-07-04T14:09:50;26.20;60.80
23729;DHT22;12045;60.214;24.724;2022-07-04T14:12:19;26.60;58.10
23729;DHT22;12045;60.214;24.724;2022-07-04T14:14:47;26.00;57.30
23729;DHT22;12045;60.214;24.724;2022-07-04T14:17:15;25.90;55.60
23729;DHT22;12045;60.214;24.724;2022-07-04T14:20:02;25.90;55.60
23729;DHT22;12045;60.214;24.724;2022-07-04T14:22:31;25.80;55.30
23729;DHT22;12045;60.214;24.724;2022-07-04T14:24:59;25.70;55.20
23729;DHT22;12045;60.214;24.724;2022-07-04T14:27:26;25.70;56.20
23729;DHT22;12045;60.214;24.724;2022-07-04T14:29:54;25.60;56.50
23729;DHT22;12045;60.214;24.724;2022-07-04T14:32:23;25.60;56.60
23729;DHT22;12045;60.214;24.724;2022-07-04T14:34:51;25.50;56.80
23729;DHT22;12045;60.214;24.724;2022-07-04T14:37:18;25.40;57.80
23729;DHT22;12045;60.214;24.724;2022-07-04T14:42:15;25.10;58.70
23729;DHT22;12045;60.214;24.724;2022-07-04T14:44:43;25.00;59.50
23729;DHT22;12045;60.214;24.724;2022-07-04T14:47:11;25.10;58.90
23729;DHT22;12045;60.214;24.724;2022-07-04T14:49:40;25.20;59.20
23729;DHT22;12045;60.214;24.724;2022-07-04T14:52:27;25.40;59.00
23729;DHT22;12045;60.214;24.724;2022-07-04T14:54:56;25.60;58.60
23729;DHT22;12045;60.214;24.724;2022-07-04T14:57:25;25.70;58.50
23729;DHT22;12045;60.214;24.724;2022-07-04T14:59:53;25.80;58.90
23729;DHT22;12045;60.214;24.724;2022-07-04T15:02:20;26.00;59.00
23729;DHT22;12045;60.214;24.724;2022-07-04T15:04:49;26.00;58.70
23729;DHT22;12045;60.214;24.724;2022-07-04T15:07:16;25.70;59.90
23729;DHT22;12045;60.214;24.724;2022-07-04T15:09:44;25.50;60.70
23729;DHT22;12045;60.214;24.724;2022-07-04T15:12:12;25.80;61.00
23729;DHT22;12045;60.214;24.724;2022-07-04T15:14:39;26.10;59.80
23729;DHT22;12045;60.214;24.724;2022-07-04T15:17:09;26.30;58.70
23729;DHT22;12045;60.214;24.724;2022-07-04T15:19:39;25.90;59.40
23729;DHT22;12045;60.214;24.724;2022-07-04T15:22:27;25.80;60.40
23729;DHT22;12045;60.214;24.724;2022-07-04T15:25:13;25.60;60.30
23729;DHT22;12045;60.214;24.724;2022-07-04T15:27:41;25.30;61.40
23729;DHT22;12045;60.214;24.724;2022-07-04T15:30:09;25.30;61.70
23729;DHT22;12045;60.214;24.724;2022-07-04T15:32:37;25.50;62.00
23729;DHT22;12045;60.214;24.724;2022-07-04T15:35:05;25.80;61.70
23729;DHT22;12045;60.214;24.724;2022-07-04T15:37:41;26.10;61.40
23729;DHT22;12045;60.214;24.724;2022-07-04T15:40:09;26.30;61.20
23729;DHT22;12045;60.214;24.724;2022-07-04T15:42:37;26.40;60.60
23729;DHT22;12045;60.214;24.724;2022-07-04T15:45:05;26.40;59.60
23729;DHT22;12045;60.214;24.724;2022-07-04T15:47:33;26.50;60.00
23729;DHT22;12045;60.214;24.724;2022-07-04T15:50:15;26.30;60.70
23729;DHT22;12045;60.214;24.724;2022-07-04T15:52:43;25.90;61.10
23729;DHT22;12045;60.214;24.724;2022-07-04T15:55:11;25.80;61.40
23729;DHT22;12045;60.214;24.724;2022-07-04T15:57:39;25.70;62.00
23729;DHT22;12045;60.214;24.724;2022-07-04T16:00:07;25.80;61.60
23729;DHT22;12045;60.214;24.724;2022-07-04T16:02:35;25.70;61.80
23729;DHT22;12045;60.214;24.724;2022-07-04T16:05:04;25.60;61.60
23729;DHT22;12045;60.214;24.724;2022-07-04T16:07:31;25.70;61.70
23729;DHT22;12045;60.214;24.724;2022-07-04T16:09:59;25.60;61.00
23729;DHT22;12045;60.214;24.724;2022-07-04T16:12:27;25.50;61.90
23729;DHT22;12045;60.214;24.724;2022-07-04T16:14:54;25.60;61.80
23729;DHT22;12045;60.214;24.724;2022-07-04T16:17:22;25.80;60.70
23729;DHT22;12045;60.214;24.724;2022-07-04T16:19:50;25.90;60.90
23729;DHT22;12045;60.214;24.724;2022-07-04T16:22:18;25.80;61.30
23729;DHT22;12045;60.214;24.724;2022-07-04T16:24:48;25.90;61.20
23729;DHT22;12045;60.214;24.724;2022-07-04T16:27:15;25.90;61.10
23729;DHT22;12045;60.214;24.724;2022-07-04T16:29:43;26.40;61.50
23729;DHT22;12045;60.214;24.724;2022-07-04T16:32:23;25.90;61.20
23729;DHT22;12045;60.214;24.724;2022-07-04T16:34:55;25.90;61.20
23729;DHT22;12045;60.214;24.724;2022-07-04T16:37:25;25.90;61.50
23729;DHT22;12045;60.214;24.724;2022-07-04T16:39:52;25.80;61.40
23729;DHT22;12045;60.214;24.724;2022-07-04T16:42:20;25.70;61.40
23729;DHT22;12045;60.214;24.724;2022-07-04T16:44:48;25.70;61.30
23729;DHT22;12045;60.214;24.724;2022-07-04T16:47:16;25.70;61.10
23729;DHT22;12045;60.214;24.724;2022-07-04T16:49:44;25.80;61.80
23729;DHT22;12045;60.214;24.724;2022-07-04T16:52:14;25.80;62.60
23729;DHT22;12045;60.214;24.724;2022-07-04T16:54:42;25.90;62.90
23729;DHT22;12045;60.214;24.724;2022-07-04T16:57:09;25.80;61.80
23729;DHT22;12045;60.214;24.724;2022-07-04T16:59:37;25.70;62.60
23729;DHT22;12045;60.214;24.724;2022-07-04T17:02:05;25.70;63.40
23729;DHT22;12045;60.214;24.724;2022-07-04T17:04:33;25.60;63.20
23729;DHT22;12045;60.214;24.724;2022-07-04T17:07:00;25.60;62.80
23729;DHT22;12045;60.214;24.724;2022-07-04T17:09:28;25.60;62.30
23729;DHT22;12045;60.214;24.724;2022-07-04T17:11:56;25.50;62.90
23729;DHT22;12045;60.214;24.724;2022-07-04T17:14:24;25.50;63.50
23729;DHT22;12045;60.214;24.724;2022-07-04T17:16:51;25.50;62.90
23729;DHT22;12045;60.214;24.724;2022-07-04T17:19:19;25.60;62.80
23729;DHT22;12045;60.214;24.724;2022-07-04T17:21:47;25.60;62.50
23729;DHT22;12045;60.214;24.724;2022-07-04T17:24:14;25.50;62.50
23729;DHT22;12045;60.214;24.724;2022-07-04T17:26:54;25.50;62.50
23729;DHT22;12045;60.214;24.724;2022-07-04T17:29:35;25.50;62.00
23729;DHT22;12045;60.214;24.724;2022-07-04T17:32:05;25.50;62.60
23729;DHT22;12045;60.214;24.724;2022-07-04T17:34:33;25.60;62.00
23729;DHT22;12045;60.214;24.724;2022-07-04T17:37:01;25.60;62.20
23729;DHT22;12045;60.214;24.724;2022-07-04T17:39:28;25.60;62.00
23729;DHT22;12045;60.214;24.724;2022-07-04T17:41:56;25.70;62.10
23729;DHT22;12045;60.214;24.724;2022-07-04T17:44:24;25.60;62.00
23729;DHT22;12045;60.214;24.724;2022-07-04T17:46:54;25.60;62.10
23729;DHT22;12045;60.214;24.724;2022-07-04T17:49:22;25.60;61.90
23729;DHT22;12045;60.214;24.724;2022-07-04T17:51:50;25.70;62.50
23729;DHT22;12045;60.214;24.724;2022-07-04T17:54:17;25.80;62.40
23729;DHT22;12045;60.214;24.724;2022-07-04T17:57:05;25.90;63.30
23729;DHT22;12045;60.214;24.724;2022-07-04T17:59:32;25.80;62.90
23729;DHT22;12045;60.214;24.724;2022-07-04T18:02:00;25.90;63.10
23729;DHT22;12045;60.214;24.724;2022-07-04T18:04:29;25.90;63.80
23729;DHT22;12045;60.214;24.724;2022-07-04T18:06:58;25.90;65.60
23729;DHT22;12045;60.214;24.724;2022-07-04T18:09:27;25.60;66.60
23729;DHT22;12045;60.214;24.724;2022-07-04T18:11:55;25.40;67.60
23729;DHT22;12045;60.214;24.724;2022-07-04T18:14:23;25.30;68.20
23729;DHT22;12045;60.214;24.724;2022-07-04T18:16:53;25.20;68.70
23729;DHT22;12045;60.214;24.724;2022-07-04T18:19:22;25.20;69.60
23729;DHT22;12045;60.214;24.724;2022-07-04T18:21:49;25.30;69.10
23729;DHT22;12045;60.214;24.724;2022-07-04T18:24:17;25.20;69.40
23729;DHT22;12045;60.214;24.724;2022-07-04T18:26:45;25.20;69.50
23729;DHT22;12045;60.214;24.724;2022-07-04T18:29:12;25.10;70.20
23729;DHT22;12045;60.214;24.724;2022-07-04T18:31:40;25.10;71.00
23729;DHT22;12045;60.214;24.724;2022-07-04T18:34:08;25.30;73.00